VRG2340 SBGR-SUMU
Flight info
| Callsign | VRG2340 |
|---|---|
| Flight time | 2h 16m |
| Altitude | 32000 |
| Route | UBSOD UZ38 UMDEX DCT CXS DCT NIGRO UM792 CRR |
| Aircraft | B738/M-SDE2E3FGHIRWXY/LB1 |
Departure
| Time | 2026-04-23 23:28 |
|---|---|
| Airport | São Paulo/Guarulhos–Governor André Franco Montoro International Airport (SBGR) |
Arrival
| Time | 2026-04-24 01:44 |
|---|---|
| Airport | Carrasco General Cesáreo L. Berisso International Airport (SUMU) |
| Time | Latitude | Longitude | Altitude | Speed | Heading |
|---|---|---|---|---|---|
| 2026-04-23 23:01 | -23.42841 | -46.48097 | 2466 ft | 0 kts | 84° |
| 2026-04-23 23:18 | -23.42841 | -46.48098 | 2466 ft | 1 kts | 85° |
| 2026-04-23 23:18 | -23.42844 | -46.48114 | 2466 ft | 2 kts | 81° |
| 2026-04-23 23:18 | -23.42845 | -46.48130 | 2466 ft | 2 kts | 85° |
| 2026-04-23 23:19 | -23.42846 | -46.48146 | 2466 ft | 2 kts | 83° |
| 2026-04-23 23:19 | -23.42846 | -46.48162 | 2466 ft | 2 kts | 112° |
| 2026-04-23 23:19 | -23.42838 | -46.48176 | 2466 ft | 2 kts | 140° |
| 2026-04-23 23:19 | -23.42825 | -46.48183 | 2466 ft | 1 kts | 168° |
| 2026-04-23 23:20 | -23.42819 | -46.48184 | 2466 ft | 1 kts | 175° |
| 2026-04-23 23:20 | -23.42817 | -46.48184 | 2466 ft | 0 kts | 173° |
| 2026-04-23 23:22 | -23.42820 | -46.48184 | 2466 ft | 2 kts | 173° |
| 2026-04-23 23:23 | -23.42854 | -46.48180 | 2466 ft | 7 kts | 174° |
| 2026-04-23 23:23 | -23.42913 | -46.48175 | 2466 ft | 8 kts | 175° |
| 2026-04-23 23:23 | -23.42971 | -46.48170 | 2466 ft | 7 kts | 175° |
| 2026-04-23 23:23 | -23.43022 | -46.48167 | 2466 ft | 6 kts | 178° |
| 2026-04-23 23:24 | -23.43068 | -46.48164 | 2466 ft | 6 kts | 172° |
| 2026-04-23 23:24 | -23.43109 | -46.48154 | 2466 ft | 6 kts | 165° |
| 2026-04-23 23:24 | -23.43160 | -46.48146 | 2466 ft | 8 kts | 183° |
| 2026-04-23 23:24 | -23.43208 | -46.48183 | 2466 ft | 9 kts | 242° |
| 2026-04-23 23:25 | -23.43234 | -46.48259 | 2466 ft | 11 kts | 253° |
| 2026-04-23 23:25 | -23.43257 | -46.48343 | 2466 ft | 11 kts | 245° |
| 2026-04-23 23:25 | -23.43298 | -46.48382 | 2466 ft | 0 kts | 198° |
| 2026-04-23 23:26 | -23.43302 | -46.48383 | 2466 ft | 2 kts | 194° |
| 2026-04-23 23:26 | -23.43344 | -46.48385 | 2466 ft | 9 kts | 171° |
| 2026-04-23 23:26 | -23.43417 | -46.48349 | 2465 ft | 12 kts | 114° |
| 2026-04-23 23:27 | -23.43412 | -46.48287 | 2465 ft | 0 kts | 73° |
| 2026-04-23 23:27 | -23.43341 | -46.48016 | 2466 ft | 72 kts | 73° |
| 2026-04-23 23:27 | -23.43138 | -46.47270 | 2466 ft | 132 kts | 75° |
| 2026-04-23 23:28 | -23.42829 | -46.46125 | 2567 ft | 171 kts | 74° |
| 2026-04-23 23:28 | -23.42439 | -46.44946 | 3301 ft | 164 kts | 72° |
| 2026-04-23 23:28 | -23.42074 | -46.43795 | 3901 ft | 169 kts | 74° |
| 2026-04-23 23:28 | -23.41724 | -46.42497 | 4307 ft | 183 kts | 74° |
| 2026-04-23 23:29 | -23.41338 | -46.41114 | 4720 ft | 198 kts | 73° |
| 2026-04-23 23:29 | -23.40915 | -46.39661 | 5158 ft | 212 kts | 72° |
| 2026-04-23 23:29 | -23.40451 | -46.38073 | 5645 ft | 226 kts | 71° |
| 2026-04-23 23:29 | -23.40086 | -46.36349 | 6027 ft | 246 kts | 85° |
| 2026-04-23 23:30 | -23.40330 | -46.34437 | 6545 ft | 262 kts | 105° |
| 2026-04-23 23:30 | -23.40992 | -46.32543 | 7125 ft | 273 kts | 110° |
| 2026-04-23 23:30 | -23.41717 | -46.30606 | 7851 ft | 277 kts | 110° |
| 2026-04-23 23:30 | -23.42531 | -46.28717 | 8564 ft | 282 kts | 119° |
| 2026-04-23 23:31 | -23.43753 | -46.27048 | 9070 ft | 286 kts | 137° |
| 2026-04-23 23:31 | -23.45496 | -46.25909 | 9250 ft | 298 kts | 158° |
| 2026-04-23 23:31 | -23.47521 | -46.25477 | 10040 ft | 299 kts | 174° |
| 2026-04-23 23:31 | -23.49631 | -46.25478 | 10540 ft | 313 kts | 183° |
| 2026-04-23 23:32 | -23.51823 | -46.25964 | 10904 ft | 331 kts | 199° |
| 2026-04-23 23:32 | -23.53848 | -46.27273 | 11242 ft | 348 kts | 220° |
| 2026-04-23 23:32 | -23.55491 | -46.29304 | 11678 ft | 360 kts | 236° |
| 2026-04-23 23:32 | -23.56612 | -46.31731 | 12269 ft | 365 kts | 249° |
| 2026-04-23 23:33 | -23.57398 | -46.34375 | 12916 ft | 369 kts | 255° |
| 2026-04-23 23:33 | -23.57999 | -46.37110 | 13595 ft | 372 kts | 258° |
| 2026-04-23 23:33 | -23.58513 | -46.39851 | 14322 ft | 373 kts | 259° |
| 2026-04-23 23:33 | -23.59021 | -46.42674 | 14979 ft | 377 kts | 259° |
| 2026-04-23 23:34 | -23.59535 | -46.45486 | 15695 ft | 379 kts | 259° |
| 2026-04-23 23:34 | -23.60066 | -46.48323 | 16125 ft | 384 kts | 258° |
| 2026-04-23 23:34 | -23.60610 | -46.51159 | 16201 ft | 383 kts | 258° |
| 2026-04-23 23:34 | -23.61138 | -46.54041 | 16319 ft | 389 kts | 260° |
| 2026-04-23 23:35 | -23.61587 | -46.56938 | 17092 ft | 387 kts | 261° |
| 2026-04-23 23:35 | -23.61999 | -46.59823 | 17825 ft | 386 kts | 262° |
| 2026-04-23 23:35 | -23.62429 | -46.62734 | 18543 ft | 386 kts | 260° |
| 2026-04-23 23:35 | -23.63097 | -46.65566 | 19209 ft | 387 kts | 251° |
| 2026-04-23 23:36 | -23.64220 | -46.68235 | 19857 ft | 388 kts | 243° |
| 2026-04-23 23:36 | -23.65573 | -46.70753 | 20451 ft | 390 kts | 239° |
| 2026-04-23 23:36 | -23.67044 | -46.73253 | 21013 ft | 393 kts | 238° |
| 2026-04-23 23:36 | -23.68579 | -46.75759 | 21593 ft | 394 kts | 236° |
| 2026-04-23 23:37 | -23.70324 | -46.78040 | 22145 ft | 398 kts | 227° |
| 2026-04-23 23:37 | -23.72425 | -46.80072 | 22700 ft | 401 kts | 220° |
| 2026-04-23 23:37 | -23.74714 | -46.81837 | 23226 ft | 405 kts | 216° |
| 2026-04-23 23:37 | -23.77115 | -46.83462 | 23733 ft | 407 kts | 214° |
| 2026-04-23 23:38 | -23.79588 | -46.85033 | 24222 ft | 410 kts | 213° |
| 2026-04-23 23:38 | -23.82082 | -46.86578 | 24743 ft | 412 kts | 213° |
| 2026-04-23 23:38 | -23.84569 | -46.88110 | 25215 ft | 414 kts | 213° |
| 2026-04-23 23:38 | -23.87097 | -46.89673 | 25694 ft | 415 kts | 213° |
| 2026-04-23 23:39 | -23.89631 | -46.91249 | 26108 ft | 419 kts | 213° |
| 2026-04-23 23:39 | -23.92169 | -46.92836 | 26598 ft | 419 kts | 213° |
| 2026-04-23 23:39 | -23.94693 | -46.94421 | 27077 ft | 420 kts | 214° |
| 2026-04-23 23:39 | -23.97278 | -46.96051 | 27459 ft | 423 kts | 214° |
| 2026-04-23 23:40 | -23.99826 | -46.97662 | 27892 ft | 425 kts | 214° |
| 2026-04-23 23:40 | -24.02376 | -46.99276 | 28294 ft | 427 kts | 214° |
| 2026-04-23 23:40 | -24.04944 | -47.00902 | 28684 ft | 429 kts | 214° |
| 2026-04-23 23:40 | -24.07524 | -47.02538 | 29088 ft | 430 kts | 214° |
| 2026-04-23 23:41 | -24.10148 | -47.04203 | 29504 ft | 432 kts | 214° |
| 2026-04-23 23:41 | -24.12757 | -47.05859 | 29905 ft | 433 kts | 214° |
| 2026-04-23 23:41 | -24.15368 | -47.07515 | 30630 ft | 427 kts | 214° |
| 2026-04-23 23:41 | -24.17916 | -47.09130 | 31281 ft | 422 kts | 214° |
| 2026-04-23 23:42 | -24.20461 | -47.10745 | 31798 ft | 420 kts | 214° |
| 2026-04-23 23:42 | -24.22993 | -47.12355 | 32152 ft | 420 kts | 214° |
| 2026-04-23 23:42 | -24.25559 | -47.13990 | 32151 ft | 422 kts | 214° |
| 2026-04-23 23:43 | -24.30532 | -47.17288 | 32152 ft | 416 kts | 216° |
| 2026-04-23 23:43 | -24.35416 | -47.20713 | 32146 ft | 417 kts | 217° |
| 2026-04-23 23:44 | -24.40323 | -47.24169 | 32142 ft | 417 kts | 217° |
| 2026-04-23 23:44 | -24.45218 | -47.27599 | 32142 ft | 418 kts | 216° |
| 2026-04-23 23:45 | -24.50124 | -47.31026 | 32139 ft | 417 kts | 216° |
| 2026-04-23 23:45 | -24.55038 | -47.34454 | 32138 ft | 418 kts | 216° |
| 2026-04-23 23:46 | -24.59932 | -47.37868 | 32135 ft | 417 kts | 217° |
| 2026-04-23 23:46 | -24.64833 | -47.41292 | 32135 ft | 418 kts | 217° |
| 2026-04-23 23:47 | -24.69800 | -47.44767 | 32136 ft | 428 kts | 216° |
| 2026-04-23 23:47 | -24.74847 | -47.48298 | 32817 ft | 426 kts | 216° |
| 2026-04-23 23:47 | -24.77345 | -47.50042 | 33459 ft | 421 kts | 216° |
| 2026-04-23 23:48 | -24.79787 | -47.51748 | 33956 ft | 419 kts | 216° |
| 2026-04-23 23:48 | -24.82260 | -47.53479 | 34140 ft | 421 kts | 216° |
| 2026-04-23 23:48 | -24.84706 | -47.55196 | 34134 ft | 421 kts | 216° |
| 2026-04-23 23:49 | -24.92095 | -47.60380 | 34135 ft | 420 kts | 216° |
| 2026-04-23 23:49 | -24.97033 | -47.63850 | 34135 ft | 420 kts | 216° |
| 2026-04-23 23:50 | -25.01982 | -47.67331 | 34132 ft | 419 kts | 217° |
| 2026-04-23 23:50 | -25.06885 | -47.70781 | 34132 ft | 419 kts | 217° |
| 2026-04-23 23:51 | -25.11819 | -47.74258 | 34132 ft | 418 kts | 217° |
| 2026-04-23 23:51 | -25.16741 | -47.77729 | 34132 ft | 418 kts | 217° |
| 2026-04-23 23:52 | -25.21635 | -47.81184 | 34132 ft | 417 kts | 217° |
| 2026-04-23 23:52 | -25.26535 | -47.84647 | 34132 ft | 417 kts | 217° |
| 2026-04-23 23:53 | -25.31423 | -47.88105 | 34132 ft | 418 kts | 217° |
| 2026-04-23 23:53 | -25.36317 | -47.91572 | 34132 ft | 417 kts | 217° |
| 2026-04-23 23:54 | -25.41211 | -47.95044 | 34132 ft | 418 kts | 217° |
| 2026-04-23 23:54 | -25.46114 | -47.98524 | 34132 ft | 418 kts | 217° |
| 2026-04-23 23:55 | -25.51000 | -48.01996 | 34132 ft | 417 kts | 217° |
| 2026-04-23 23:55 | -25.55896 | -48.05477 | 34133 ft | 418 kts | 217° |
| 2026-04-23 23:56 | -25.60780 | -48.08955 | 34139 ft | 418 kts | 217° |
| 2026-04-23 23:56 | -25.65673 | -48.12438 | 34134 ft | 417 kts | 218° |
| 2026-04-23 23:57 | -25.70544 | -48.15905 | 34137 ft | 418 kts | 217° |
| 2026-04-23 23:57 | -25.75485 | -48.19423 | 34141 ft | 420 kts | 217° |
| 2026-04-23 23:58 | -25.80380 | -48.22910 | 34140 ft | 416 kts | 218° |
| 2026-04-23 23:58 | -25.85261 | -48.26392 | 34145 ft | 418 kts | 218° |
| 2026-04-23 23:59 | -25.90154 | -48.29888 | 34143 ft | 418 kts | 218° |
| 2026-04-23 23:59 | -25.95039 | -48.33381 | 34141 ft | 417 kts | 218° |
| 2026-04-24 00:00 | -25.99918 | -48.36872 | 34148 ft | 418 kts | 218° |
| 2026-04-24 00:00 | -26.04842 | -48.40400 | 34150 ft | 418 kts | 218° |
| 2026-04-24 00:01 | -26.09710 | -48.43890 | 34147 ft | 417 kts | 218° |
| 2026-04-24 00:01 | -26.14600 | -48.47401 | 34153 ft | 418 kts | 218° |
| 2026-04-24 00:02 | -26.19498 | -48.50922 | 34149 ft | 417 kts | 218° |
| 2026-04-24 00:02 | -26.24403 | -48.54450 | 34152 ft | 416 kts | 218° |
| 2026-04-24 00:03 | -26.29258 | -48.57948 | 34152 ft | 416 kts | 218° |
| 2026-04-24 00:03 | -26.34127 | -48.61460 | 34153 ft | 418 kts | 218° |
| 2026-04-24 00:04 | -26.39028 | -48.64999 | 34156 ft | 417 kts | 218° |
| 2026-04-24 00:04 | -26.43881 | -48.68506 | 34156 ft | 417 kts | 219° |
| 2026-04-24 00:05 | -26.48756 | -48.72042 | 34158 ft | 417 kts | 219° |
| 2026-04-24 00:05 | -26.53603 | -48.75608 | 34158 ft | 415 kts | 219° |
| 2026-04-24 00:06 | -26.58402 | -48.79156 | 34160 ft | 416 kts | 220° |
| 2026-04-24 00:06 | -26.63223 | -48.82724 | 34161 ft | 415 kts | 219° |
| 2026-04-24 00:07 | -26.68049 | -48.86287 | 34169 ft | 413 kts | 220° |
| 2026-04-24 00:07 | -26.72856 | -48.89806 | 34183 ft | 415 kts | 219° |
| 2026-04-24 00:08 | -26.77692 | -48.93330 | 34185 ft | 413 kts | 219° |
| 2026-04-24 00:08 | -26.82511 | -48.96847 | 34188 ft | 412 kts | 219° |
| 2026-04-24 00:09 | -26.87318 | -49.00364 | 34191 ft | 413 kts | 220° |
| 2026-04-24 00:09 | -26.92114 | -49.03878 | 34193 ft | 413 kts | 220° |
| 2026-04-24 00:10 | -26.96954 | -49.07429 | 34192 ft | 413 kts | 220° |
| 2026-04-24 00:10 | -27.01768 | -49.10963 | 34191 ft | 414 kts | 220° |
| 2026-04-24 00:11 | -27.06575 | -49.14494 | 34183 ft | 410 kts | 220° |
| 2026-04-24 00:11 | -27.11377 | -49.18030 | 34173 ft | 415 kts | 220° |
| 2026-04-24 00:12 | -27.16197 | -49.21581 | 34172 ft | 414 kts | 220° |
| 2026-04-24 00:12 | -27.21031 | -49.25147 | 34172 ft | 415 kts | 220° |
| 2026-04-24 00:13 | -27.25838 | -49.28697 | 34174 ft | 414 kts | 220° |
| 2026-04-24 00:13 | -27.30662 | -49.32262 | 34182 ft | 413 kts | 220° |
| 2026-04-24 00:14 | -27.35441 | -49.35797 | 34185 ft | 411 kts | 220° |
| 2026-04-24 00:14 | -27.40249 | -49.39357 | 34194 ft | 414 kts | 220° |
| 2026-04-24 00:15 | -27.45035 | -49.42907 | 34200 ft | 412 kts | 220° |
| 2026-04-24 00:15 | -27.49821 | -49.46459 | 34201 ft | 410 kts | 220° |
| 2026-04-24 00:16 | -27.54603 | -49.50021 | 34208 ft | 412 kts | 222° |
| 2026-04-24 00:16 | -27.59043 | -49.53987 | 34207 ft | 403 kts | 228° |
| 2026-04-24 00:17 | -27.63224 | -49.58237 | 34209 ft | 405 kts | 229° |
| 2026-04-24 00:17 | -27.67388 | -49.62516 | 34213 ft | 405 kts | 229° |
| 2026-04-24 00:18 | -27.71574 | -49.66777 | 34220 ft | 402 kts | 229° |
| 2026-04-24 00:18 | -27.75789 | -49.71039 | 34226 ft | 404 kts | 229° |
| 2026-04-24 00:19 | -27.79986 | -49.75275 | 34230 ft | 403 kts | 229° |
| 2026-04-24 00:19 | -27.84160 | -49.79488 | 34237 ft | 406 kts | 229° |
| 2026-04-24 00:20 | -27.88375 | -49.83738 | 34245 ft | 401 kts | 229° |
| 2026-04-24 00:20 | -27.92557 | -49.87964 | 34251 ft | 404 kts | 229° |
| 2026-04-24 00:21 | -27.96728 | -49.92186 | 34254 ft | 402 kts | 228° |
| 2026-04-24 00:21 | -28.00914 | -49.96426 | 34256 ft | 403 kts | 229° |
| 2026-04-24 00:22 | -28.05064 | -50.00634 | 34253 ft | 401 kts | 229° |
| 2026-04-24 00:22 | -28.09241 | -50.04874 | 34256 ft | 403 kts | 229° |
| 2026-04-24 00:23 | -28.13429 | -50.09129 | 34251 ft | 402 kts | 229° |
| 2026-04-24 00:23 | -28.17605 | -50.13380 | 34254 ft | 403 kts | 229° |
| 2026-04-24 00:24 | -28.21786 | -50.17639 | 34244 ft | 406 kts | 229° |
| 2026-04-24 00:24 | -28.25969 | -50.21902 | 34233 ft | 403 kts | 229° |
| 2026-04-24 00:25 | -28.30185 | -50.26203 | 34227 ft | 404 kts | 229° |
| 2026-04-24 00:25 | -28.34347 | -50.30451 | 34226 ft | 402 kts | 230° |
| 2026-04-24 00:26 | -28.38518 | -50.34725 | 34221 ft | 404 kts | 230° |
| 2026-04-24 00:26 | -28.42698 | -50.39010 | 34218 ft | 404 kts | 230° |
| 2026-04-24 00:27 | -28.46856 | -50.43267 | 34215 ft | 402 kts | 230° |
| 2026-04-24 00:27 | -28.51054 | -50.47581 | 34220 ft | 408 kts | 230° |
| 2026-04-24 00:28 | -28.55222 | -50.51859 | 34218 ft | 405 kts | 230° |
| 2026-04-24 00:28 | -28.59409 | -50.56163 | 34210 ft | 404 kts | 229° |
| 2026-04-24 00:29 | -28.63607 | -50.60485 | 34210 ft | 404 kts | 230° |
| 2026-04-24 00:29 | -28.67788 | -50.64791 | 34202 ft | 402 kts | 230° |
| 2026-04-24 00:30 | -28.71961 | -50.69095 | 34198 ft | 405 kts | 230° |
| 2026-04-24 00:30 | -28.76135 | -50.73415 | 34194 ft | 403 kts | 230° |
| 2026-04-24 00:31 | -28.80302 | -50.77722 | 34192 ft | 404 kts | 230° |
| 2026-04-24 00:31 | -28.84452 | -50.82026 | 34191 ft | 404 kts | 230° |
| 2026-04-24 00:32 | -28.88641 | -50.86368 | 34190 ft | 404 kts | 230° |
| 2026-04-24 00:32 | -28.92819 | -50.90704 | 34193 ft | 405 kts | 230° |
| 2026-04-24 00:33 | -28.96979 | -50.95020 | 34187 ft | 403 kts | 230° |
| 2026-04-24 00:33 | -29.01127 | -50.99337 | 34191 ft | 402 kts | 230° |
| 2026-04-24 00:34 | -29.05261 | -51.03640 | 34183 ft | 405 kts | 230° |
| 2026-04-24 00:34 | -29.09428 | -51.07984 | 34183 ft | 405 kts | 230° |
| 2026-04-24 00:35 | -29.13601 | -51.12339 | 34181 ft | 405 kts | 230° |
| 2026-04-24 00:35 | -29.17763 | -51.16687 | 34182 ft | 404 kts | 230° |
| 2026-04-24 00:36 | -29.21943 | -51.20984 | 34167 ft | 401 kts | 229° |
| 2026-04-24 00:36 | -29.26287 | -51.25127 | 34166 ft | 408 kts | 227° |
| 2026-04-24 00:37 | -29.30663 | -51.29229 | 34165 ft | 407 kts | 227° |
| 2026-04-24 00:37 | -29.35054 | -51.33373 | 34161 ft | 407 kts | 227° |
| 2026-04-24 00:38 | -29.39409 | -51.37509 | 34150 ft | 405 kts | 227° |
| 2026-04-24 00:38 | -29.43771 | -51.41669 | 34152 ft | 406 kts | 227° |
| 2026-04-24 00:39 | -29.48072 | -51.45779 | 34147 ft | 402 kts | 227° |
| 2026-04-24 00:39 | -29.52396 | -51.49924 | 34145 ft | 403 kts | 227° |
| 2026-04-24 00:40 | -29.56691 | -51.54037 | 34144 ft | 402 kts | 228° |
| 2026-04-24 00:40 | -29.61007 | -51.58187 | 34142 ft | 403 kts | 228° |
| 2026-04-24 00:41 | -29.65318 | -51.62337 | 34126 ft | 404 kts | 227° |
| 2026-04-24 00:41 | -29.69616 | -51.66477 | 34121 ft | 401 kts | 228° |
| 2026-04-24 00:42 | -29.73825 | -51.70533 | 34118 ft | 404 kts | 228° |
| 2026-04-24 00:42 | -29.78197 | -51.74748 | 34126 ft | 400 kts | 228° |
| 2026-04-24 00:43 | -29.82486 | -51.78888 | 34112 ft | 401 kts | 228° |
| 2026-04-24 00:43 | -29.86770 | -51.83026 | 34125 ft | 404 kts | 229° |
| 2026-04-24 00:44 | -29.91099 | -51.87219 | 34110 ft | 402 kts | 228° |
| 2026-04-24 00:44 | -29.95384 | -51.91373 | 34116 ft | 405 kts | 228° |
| 2026-04-24 00:45 | -29.99701 | -51.95559 | 34115 ft | 399 kts | 228° |
| 2026-04-24 00:45 | -30.03997 | -51.99732 | 34110 ft | 402 kts | 228° |
| 2026-04-24 00:46 | -30.08312 | -52.03929 | 34113 ft | 404 kts | 227° |
| 2026-04-24 00:46 | -30.12597 | -52.08098 | 34116 ft | 403 kts | 228° |
| 2026-04-24 00:47 | -30.16886 | -52.12277 | 34135 ft | 405 kts | 228° |
| 2026-04-24 00:47 | -30.21182 | -52.16471 | 34136 ft | 404 kts | 228° |
| 2026-04-24 00:48 | -30.25483 | -52.20670 | 34129 ft | 406 kts | 228° |
| 2026-04-24 00:48 | -30.29798 | -52.24885 | 34141 ft | 406 kts | 229° |
| 2026-04-24 00:49 | -30.34105 | -52.29100 | 34137 ft | 404 kts | 229° |
| 2026-04-24 00:49 | -30.38370 | -52.33276 | 34143 ft | 403 kts | 229° |
| 2026-04-24 00:50 | -30.42684 | -52.37517 | 34150 ft | 407 kts | 229° |
| 2026-04-24 00:50 | -30.46958 | -52.41714 | 34149 ft | 400 kts | 229° |
| 2026-04-24 00:51 | -30.51227 | -52.45924 | 34162 ft | 407 kts | 229° |
| 2026-04-24 00:51 | -30.55550 | -52.50187 | 34161 ft | 409 kts | 230° |
| 2026-04-24 00:52 | -30.59861 | -52.54438 | 34163 ft | 405 kts | 230° |
| 2026-04-24 00:52 | -30.64149 | -52.58673 | 34164 ft | 407 kts | 230° |
| 2026-04-24 00:53 | -30.68492 | -52.62967 | 34165 ft | 409 kts | 230° |
| 2026-04-24 00:53 | -30.72816 | -52.67240 | 34161 ft | 406 kts | 231° |
| 2026-04-24 00:54 | -30.77153 | -52.71534 | 34162 ft | 408 kts | 230° |
| 2026-04-24 00:54 | -30.81480 | -52.75829 | 34159 ft | 408 kts | 230° |
| 2026-04-24 00:55 | -30.85808 | -52.80132 | 34156 ft | 408 kts | 230° |
| 2026-04-24 00:55 | -30.90110 | -52.84407 | 34164 ft | 409 kts | 231° |
| 2026-04-24 00:56 | -30.94440 | -52.88722 | 34165 ft | 413 kts | 231° |
| 2026-04-24 00:56 | -30.98822 | -52.93089 | 34165 ft | 413 kts | 231° |
| 2026-04-24 00:57 | -31.03157 | -52.97417 | 34165 ft | 412 kts | 231° |
| 2026-04-24 00:58 | -31.09706 | -53.03974 | 34171 ft | 414 kts | 231° |
| 2026-04-24 00:58 | -31.14011 | -53.08275 | 34167 ft | 406 kts | 232° |
| 2026-04-24 00:59 | -31.18330 | -53.12619 | 34168 ft | 415 kts | 231° |
| 2026-04-24 00:59 | -31.22693 | -53.17001 | 34167 ft | 412 kts | 231° |
| 2026-04-24 01:00 | -31.27059 | -53.21382 | 34171 ft | 415 kts | 231° |
| 2026-04-24 01:00 | -31.31430 | -53.25775 | 34172 ft | 413 kts | 232° |
| 2026-04-24 01:01 | -31.35785 | -53.30167 | 34172 ft | 414 kts | 231° |
| 2026-04-24 01:01 | -31.40152 | -53.34575 | 34173 ft | 413 kts | 232° |
| 2026-04-24 01:02 | -31.44522 | -53.38995 | 34172 ft | 411 kts | 232° |
| 2026-04-24 01:02 | -31.48825 | -53.43354 | 34173 ft | 416 kts | 231° |
| 2026-04-24 01:03 | -31.53225 | -53.47825 | 34175 ft | 416 kts | 232° |
| 2026-04-24 01:03 | -31.57582 | -53.52232 | 34176 ft | 415 kts | 232° |
| 2026-04-24 01:04 | -31.61979 | -53.56710 | 34175 ft | 420 kts | 232° |
| 2026-04-24 01:04 | -31.66308 | -53.61094 | 34172 ft | 411 kts | 232° |
| 2026-04-24 01:05 | -31.70666 | -53.65533 | 34171 ft | 416 kts | 233° |
| 2026-04-24 01:05 | -31.75048 | -53.70012 | 34160 ft | 413 kts | 232° |
| 2026-04-24 01:06 | -31.79376 | -53.74410 | 34166 ft | 415 kts | 233° |
| 2026-04-24 01:06 | -31.83724 | -53.78855 | 34163 ft | 414 kts | 232° |
| 2026-04-24 01:07 | -31.88089 | -53.83333 | 34157 ft | 416 kts | 232° |
| 2026-04-24 01:07 | -31.92457 | -53.87813 | 34157 ft | 415 kts | 232° |
| 2026-04-24 01:08 | -31.96891 | -53.92237 | 34155 ft | 422 kts | 230° |
| 2026-04-24 01:08 | -32.01689 | -53.96263 | 34160 ft | 426 kts | 226° |
| 2026-04-24 01:09 | -32.06647 | -54.00148 | 34160 ft | 429 kts | 225° |
| 2026-04-24 01:09 | -32.11627 | -54.04060 | 34158 ft | 429 kts | 226° |
| 2026-04-24 01:10 | -32.16602 | -54.07998 | 34161 ft | 425 kts | 226° |
| 2026-04-24 01:10 | -32.21513 | -54.11920 | 34159 ft | 427 kts | 226° |
| 2026-04-24 01:11 | -32.26423 | -54.15859 | 34168 ft | 429 kts | 226° |
| 2026-04-24 01:11 | -32.31372 | -54.19839 | 34174 ft | 426 kts | 226° |
| 2026-04-24 01:12 | -32.36300 | -54.23764 | 34175 ft | 432 kts | 224° |
| 2026-04-24 01:12 | -32.41525 | -54.27492 | 34172 ft | 441 kts | 222° |
| 2026-04-24 01:13 | -32.46857 | -54.31156 | 34178 ft | 442 kts | 221° |
| 2026-04-24 01:13 | -32.52110 | -54.34765 | 34172 ft | 438 kts | 222° |
| 2026-04-24 01:14 | -32.57368 | -54.38430 | 34180 ft | 435 kts | 223° |
| 2026-04-24 01:14 | -32.62591 | -54.42103 | 34174 ft | 439 kts | 222° |
| 2026-04-24 01:15 | -32.67855 | -54.45811 | 34178 ft | 434 kts | 223° |
| 2026-04-24 01:15 | -32.73040 | -54.49477 | 34183 ft | 439 kts | 223° |
| 2026-04-24 01:16 | -32.78345 | -54.53245 | 34178 ft | 442 kts | 223° |
| 2026-04-24 01:16 | -32.83592 | -54.56954 | 34180 ft | 437 kts | 222° |
| 2026-04-24 01:17 | -32.88831 | -54.60667 | 34175 ft | 438 kts | 223° |
| 2026-04-24 01:17 | -32.94080 | -54.64405 | 34183 ft | 442 kts | 223° |
| 2026-04-24 01:18 | -32.99366 | -54.68173 | 34178 ft | 438 kts | 223° |
| 2026-04-24 01:18 | -33.04589 | -54.71891 | 34183 ft | 440 kts | 223° |
| 2026-04-24 01:19 | -33.09423 | -54.75345 | 34177 ft | 439 kts | 223° |
| 2026-04-24 01:19 | -33.14706 | -54.79123 | 34183 ft | 439 kts | 223° |
| 2026-04-24 01:20 | -33.19877 | -54.82825 | 34181 ft | 443 kts | 223° |
| 2026-04-24 01:20 | -33.25150 | -54.86604 | 34180 ft | 441 kts | 223° |
| 2026-04-24 01:21 | -33.30387 | -54.90356 | 34179 ft | 438 kts | 223° |
| 2026-04-24 01:21 | -33.35654 | -54.94146 | 34181 ft | 438 kts | 223° |
| 2026-04-24 01:22 | -33.40903 | -54.97936 | 33700 ft | 443 kts | 223° |
| 2026-04-24 01:22 | -33.43527 | -54.99828 | 33107 ft | 441 kts | 223° |
| 2026-04-24 01:22 | -33.46157 | -55.01725 | 32375 ft | 442 kts | 223° |
| 2026-04-24 01:22 | -33.48806 | -55.03639 | 31580 ft | 446 kts | 223° |
| 2026-04-24 01:23 | -33.51498 | -55.05589 | 30906 ft | 445 kts | 222° |
| 2026-04-24 01:23 | -33.54126 | -55.07486 | 30297 ft | 442 kts | 222° |
| 2026-04-24 01:23 | -33.56758 | -55.09383 | 29667 ft | 441 kts | 222° |
| 2026-04-24 01:23 | -33.59376 | -55.11268 | 29054 ft | 438 kts | 221° |
| 2026-04-24 01:24 | -33.61976 | -55.13147 | 28439 ft | 437 kts | 221° |
| 2026-04-24 01:24 | -33.64599 | -55.15045 | 27797 ft | 435 kts | 221° |
| 2026-04-24 01:24 | -33.67151 | -55.16893 | 27165 ft | 433 kts | 221° |
| 2026-04-24 01:24 | -33.69769 | -55.18791 | 26522 ft | 431 kts | 220° |
| 2026-04-24 01:25 | -33.72327 | -55.20646 | 25883 ft | 429 kts | 220° |
| 2026-04-24 01:25 | -33.74853 | -55.22480 | 25257 ft | 425 kts | 219° |
| 2026-04-24 01:25 | -33.77375 | -55.24313 | 24616 ft | 422 kts | 219° |
| 2026-04-24 01:25 | -33.79900 | -55.26148 | 23999 ft | 419 kts | 218° |
| 2026-04-24 01:26 | -33.82356 | -55.27934 | 23385 ft | 415 kts | 218° |
| 2026-04-24 01:26 | -33.84820 | -55.29728 | 22762 ft | 411 kts | 217° |
| 2026-04-24 01:26 | -33.87254 | -55.31503 | 22137 ft | 408 kts | 217° |
| 2026-04-24 01:26 | -33.89664 | -55.33261 | 21519 ft | 404 kts | 217° |
| 2026-04-24 01:27 | -33.92066 | -55.35015 | 20912 ft | 401 kts | 216° |
| 2026-04-24 01:27 | -33.94436 | -55.36747 | 20242 ft | 391 kts | 216° |
| 2026-04-24 01:27 | -33.96706 | -55.38401 | 19665 ft | 375 kts | 215° |
| 2026-04-24 01:27 | -33.98893 | -55.39996 | 19106 ft | 361 kts | 214° |
| 2026-04-24 01:28 | -34.00980 | -55.41521 | 18571 ft | 349 kts | 215° |
| 2026-04-24 01:28 | -34.03020 | -55.43019 | 18089 ft | 341 kts | 214° |
| 2026-04-24 01:28 | -34.05064 | -55.44527 | 17513 ft | 345 kts | 214° |
| 2026-04-24 01:28 | -34.07104 | -55.46033 | 16975 ft | 348 kts | 214° |
| 2026-04-24 01:29 | -34.09182 | -55.47563 | 16439 ft | 346 kts | 214° |
| 2026-04-24 01:29 | -34.11217 | -55.49058 | 15914 ft | 345 kts | 213° |
| 2026-04-24 01:29 | -34.13273 | -55.50568 | 15371 ft | 344 kts | 213° |
| 2026-04-24 01:29 | -34.15319 | -55.52072 | 14839 ft | 343 kts | 213° |
| 2026-04-24 01:30 | -34.17366 | -55.53576 | 14298 ft | 341 kts | 213° |
| 2026-04-24 01:30 | -34.19385 | -55.55061 | 13774 ft | 340 kts | 212° |
| 2026-04-24 01:30 | -34.21398 | -55.56542 | 13244 ft | 339 kts | 212° |
| 2026-04-24 01:30 | -34.23409 | -55.58022 | 12711 ft | 337 kts | 212° |
| 2026-04-24 01:31 | -34.25411 | -55.59497 | 12185 ft | 336 kts | 212° |
| 2026-04-24 01:31 | -34.27398 | -55.60961 | 11663 ft | 334 kts | 212° |
| 2026-04-24 01:31 | -34.29343 | -55.62396 | 11119 ft | 326 kts | 212° |
| 2026-04-24 01:31 | -34.31213 | -55.63774 | 10773 ft | 315 kts | 212° |
| 2026-04-24 01:32 | -34.33101 | -55.65181 | 10515 ft | 305 kts | 214° |
| 2026-04-24 01:32 | -34.34702 | -55.66720 | 10376 ft | 283 kts | 227° |
| 2026-04-24 01:32 | -34.35876 | -55.68505 | 10299 ft | 266 kts | 236° |
| 2026-04-24 01:32 | -34.36888 | -55.70388 | 9960 ft | 269 kts | 238° |
| 2026-04-24 01:33 | -34.37909 | -55.72324 | 9585 ft | 268 kts | 237° |
| 2026-04-24 01:33 | -34.38752 | -55.73873 | 9303 ft | 267 kts | 236° |
| 2026-04-24 01:33 | -34.39796 | -55.75744 | 8949 ft | 265 kts | 236° |
| 2026-04-24 01:33 | -34.40840 | -55.77585 | 8614 ft | 263 kts | 235° |
| 2026-04-24 01:34 | -34.41875 | -55.79405 | 8275 ft | 261 kts | 235° |
| 2026-04-24 01:34 | -34.42903 | -55.81214 | 7944 ft | 259 kts | 235° |
| 2026-04-24 01:34 | -34.43915 | -55.82998 | 7614 ft | 257 kts | 235° |
| 2026-04-24 01:34 | -34.44922 | -55.84774 | 7282 ft | 256 kts | 235° |
| 2026-04-24 01:35 | -34.45928 | -55.86550 | 6959 ft | 254 kts | 235° |
| 2026-04-24 01:35 | -34.46929 | -55.88318 | 6638 ft | 256 kts | 234° |
| 2026-04-24 01:35 | -34.47935 | -55.90094 | 6302 ft | 260 kts | 235° |
| 2026-04-24 01:35 | -34.48957 | -55.91901 | 5964 ft | 258 kts | 234° |
| 2026-04-24 01:36 | -34.49967 | -55.93686 | 5634 ft | 257 kts | 235° |
| 2026-04-24 01:36 | -34.50967 | -55.95456 | 5318 ft | 255 kts | 235° |
| 2026-04-24 01:36 | -34.51954 | -55.97203 | 5135 ft | 243 kts | 234° |
| 2026-04-24 01:36 | -34.52875 | -55.98837 | 5110 ft | 230 kts | 234° |
| 2026-04-24 01:37 | -34.53791 | -56.00460 | 5027 ft | 236 kts | 235° |
| 2026-04-24 01:37 | -34.54727 | -56.02043 | 4948 ft | 221 kts | 229° |
| 2026-04-24 01:37 | -34.55852 | -56.03215 | 4850 ft | 208 kts | 202° |
| 2026-04-24 01:37 | -34.57230 | -56.03514 | 4639 ft | 197 kts | 177° |
| 2026-04-24 01:38 | -34.58563 | -56.03424 | 4417 ft | 189 kts | 176° |
| 2026-04-24 01:38 | -34.59854 | -56.03374 | 4218 ft | 180 kts | 178° |
| 2026-04-24 01:38 | -34.61084 | -56.03359 | 4049 ft | 172 kts | 179° |
| 2026-04-24 01:38 | -34.62228 | -56.03347 | 3974 ft | 158 kts | 178° |
| 2026-04-24 01:39 | -34.63295 | -56.03332 | 3845 ft | 151 kts | 179° |
| 2026-04-24 01:39 | -34.64350 | -56.03320 | 3566 ft | 150 kts | 178° |
| 2026-04-24 01:39 | -34.65361 | -56.03308 | 3384 ft | 142 kts | 178° |
| 2026-04-24 01:39 | -34.66372 | -56.03292 | 3212 ft | 147 kts | 177° |
| 2026-04-24 01:40 | -34.67394 | -56.03280 | 2948 ft | 146 kts | 178° |
| 2026-04-24 01:40 | -34.68424 | -56.03269 | 2776 ft | 148 kts | 178° |
| 2026-04-24 01:40 | -34.69467 | -56.03255 | 2563 ft | 152 kts | 178° |
| 2026-04-24 01:40 | -34.70546 | -56.03242 | 2350 ft | 154 kts | 178° |
| 2026-04-24 01:41 | -34.71618 | -56.03230 | 2138 ft | 154 kts | 178° |
| 2026-04-24 01:41 | -34.72684 | -56.03216 | 1932 ft | 153 kts | 178° |
| 2026-04-24 01:41 | -34.73762 | -56.03203 | 1720 ft | 153 kts | 178° |
| 2026-04-24 01:41 | -34.74826 | -56.03191 | 1510 ft | 153 kts | 178° |
| 2026-04-24 01:42 | -34.75897 | -56.03178 | 1297 ft | 150 kts | 178° |
| 2026-04-24 01:42 | -34.76927 | -56.03165 | 1099 ft | 147 kts | 178° |
| 2026-04-24 01:42 | -34.77956 | -56.03152 | 899 ft | 145 kts | 178° |
| 2026-04-24 01:42 | -34.78953 | -56.03139 | 705 ft | 143 kts | 178° |
| 2026-04-24 01:43 | -34.79960 | -56.03126 | 518 ft | 145 kts | 178° |
| 2026-04-24 01:43 | -34.80962 | -56.03117 | 339 ft | 143 kts | 179° |
| 2026-04-24 01:43 | -34.81955 | -56.03115 | 141 ft | 143 kts | 178° |
| 2026-04-24 01:43 | -34.82908 | -56.03079 | 61 ft | 121 kts | 176° |
| 2026-04-24 01:44 | -34.83508 | -56.03052 | 68 ft | 56 kts | 188° |
| 2026-04-24 01:44 | -34.83852 | -56.03081 | 64 ft | 40 kts | 180° |
| 2026-04-24 01:44 | -34.83998 | -56.03073 | 62 ft | 0 kts | 140° |
| 2026-04-24 01:44 | -34.84006 | -56.03057 | 62 ft | 4 kts | 103° |
| 2026-04-24 01:45 | -34.84008 | -56.03001 | 62 ft | 8 kts | 90° |
| 2026-04-24 01:45 | -34.84008 | -56.02913 | 62 ft | 12 kts | 90° |
| 2026-04-24 01:45 | -34.84005 | -56.02798 | 63 ft | 15 kts | 76° |
| 2026-04-24 01:45 | -34.83960 | -56.02687 | 64 ft | 14 kts | 69° |
| 2026-04-24 01:46 | -34.83947 | -56.02574 | 65 ft | 13 kts | 87° |
| 2026-04-24 01:46 | -34.83946 | -56.02462 | 65 ft | 13 kts | 90° |
| 2026-04-24 01:46 | -34.83947 | -56.02351 | 65 ft | 13 kts | 90° |
| 2026-04-24 01:46 | -34.83923 | -56.02255 | 66 ft | 12 kts | 24° |
| 2026-04-24 01:47 | -34.83844 | -56.02246 | 68 ft | 10 kts | 2° |
| 2026-04-24 01:47 | -34.83786 | -56.02222 | 70 ft | 8 kts | 36° |
| 2026-04-24 01:47 | -34.83747 | -56.02177 | 71 ft | 7 kts | 49° |
| 2026-04-24 01:47 | -34.83716 | -56.02128 | 71 ft | 9 kts | 53° |
| 2026-04-24 01:48 | -34.83665 | -56.02045 | 73 ft | 15 kts | 53° |
| 2026-04-24 01:48 | -34.83605 | -56.01949 | 75 ft | 7 kts | 53° |
| 2026-04-24 01:48 | -34.83631 | -56.01878 | 75 ft | 10 kts | 141° |
| 2026-04-24 01:48 | -34.83655 | -56.01854 | 75 ft | 0 kts | 142° |